sensor_id;sensor_type;location;lat;lon;timestamp;temperature;humidity
23544;DHT22;11950;51.230;4.012;2023-05-07T00:02:24;17.20;99.90
23544;DHT22;11950;51.230;4.012;2023-05-07T00:04:51;17.20;99.90
23544;DHT22;11950;51.230;4.012;2023-05-07T00:07:18;17.10;99.90
23544;DHT22;11950;51.230;4.012;2023-05-07T00:09:44;17.10;99.90
23544;DHT22;11950;51.230;4.012;2023-05-07T00:12:11;17.10;99.90
23544;DHT22;11950;51.230;4.012;2023-05-07T00:14:37;17.10;99.90
23544;DHT22;11950;51.230;4.012;2023-05-07T00:17:04;17.10;99.90
23544;DHT22;11950;51.230;4.012;2023-05-07T00:19:30;17.00;99.90
23544;DHT22;11950;51.230;4.012;2023-05-07T00:21:58;17.00;99.90
23544;DHT22;11950;51.230;4.012;2023-05-07T00:24:24;17.00;99.90
23544;DHT22;11950;51.230;4.012;2023-05-07T00:26:50;17.00;99.90
23544;DHT22;11950;51.230;4.012;2023-05-07T00:29:18;16.90;99.90
23544;DHT22;11950;51.230;4.012;2023-05-07T00:31:45;16.90;99.90
23544;DHT22;11950;51.230;4.012;2023-05-07T00:34:11;16.90;99.90
23544;DHT22;11950;51.230;4.012;2023-05-07T00:36:37;16.90;99.90
23544;DHT22;11950;51.230;4.012;2023-05-07T00:39:04;16.90;99.90
23544;DHT22;11950;51.230;4.012;2023-05-07T00:41:30;16.90;99.90
23544;DHT22;11950;51.230;4.012;2023-05-07T00:43:57;16.80;99.90
23544;DHT22;11950;51.230;4.012;2023-05-07T00:46:23;16.80;99.90
23544;DHT22;11950;51.230;4.012;2023-05-07T00:48:51;16.80;99.90
23544;DHT22;11950;51.230;4.012;2023-05-07T00:51:17;16.80;99.90
23544;DHT22;11950;51.230;4.012;2023-05-07T00:53:44;16.70;99.90
23544;DHT22;11950;51.230;4.012;2023-05-07T00:56:11;16.70;99.90
23544;DHT22;11950;51.230;4.012;2023-05-07T00:58:38;16.70;99.90
23544;DHT22;11950;51.230;4.012;2023-05-07T01:01:05;16.70;99.90
23544;DHT22;11950;51.230;4.012;2023-05-07T01:03:31;16.60;99.90
23544;DHT22;11950;51.230;4.012;2023-05-07T01:05:58;16.60;99.90
23544;DHT22;11950;51.230;4.012;2023-05-07T01:08:26;16.50;99.90
23544;DHT22;11950;51.230;4.012;2023-05-07T01:10:55;16.50;99.90
23544;DHT22;11950;51.230;4.012;2023-05-07T01:13:22;16.40;99.90
23544;DHT22;11950;51.230;4.012;2023-05-07T01:15:49;16.40;99.90
23544;DHT22;11950;51.230;4.012;2023-05-07T01:18:16;16.40;99.90
23544;DHT22;11950;51.230;4.012;2023-05-07T01:20:43;16.40;99.90
23544;DHT22;11950;51.230;4.012;2023-05-07T01:23:11;16.30;99.90
23544;DHT22;11950;51.230;4.012;2023-05-07T01:25:37;16.30;99.90
23544;DHT22;11950;51.230;4.012;2023-05-07T01:28:04;16.30;99.90
23544;DHT22;11950;51.230;4.012;2023-05-07T01:30:35;16.30;99.90
23544;DHT22;11950;51.230;4.012;2023-05-07T01:33:09;16.20;99.90
23544;DHT22;11950;51.230;4.012;2023-05-07T01:35:40;16.20;99.90
23544;DHT22;11950;51.230;4.012;2023-05-07T01:38:08;16.20;99.90
23544;DHT22;11950;51.230;4.012;2023-05-07T01:40:34;16.20;99.90
23544;DHT22;11950;51.230;4.012;2023-05-07T01:43:02;16.20;99.90
23544;DHT22;11950;51.230;4.012;2023-05-07T01:45:30;16.20;99.90
23544;DHT22;11950;51.230;4.012;2023-05-07T01:48:01;16.10;99.90
23544;DHT22;11950;51.230;4.012;2023-05-07T01:50:29;16.20;99.90
23544;DHT22;11950;51.230;4.012;2023-05-07T01:52:56;16.10;99.90
23544;DHT22;11950;51.230;4.012;2023-05-07T01:55:23;16.10;99.90
23544;DHT22;11950;51.230;4.012;2023-05-07T01:57:49;16.10;99.90
23544;DHT22;11950;51.230;4.012;2023-05-07T02:00:16;16.10;99.90
23544;DHT22;11950;51.230;4.012;2023-05-07T02:02:44;16.10;99.90
23544;DHT22;11950;51.230;4.012;2023-05-07T02:05:22;16.10;99.90
23544;DHT22;11950;51.230;4.012;2023-05-07T02:07:55;16.10;99.90
23544;DHT22;11950;51.230;4.012;2023-05-07T02:10:22;16.10;99.90
23544;DHT22;11950;51.230;4.012;2023-05-07T02:12:48;16.10;99.90
23544;DHT22;11950;51.230;4.012;2023-05-07T02:15:15;16.10;99.90
23544;DHT22;11950;51.230;4.012;2023-05-07T02:18:01;16.10;99.90
23544;DHT22;11950;51.230;4.012;2023-05-07T02:20:28;16.00;99.90
23544;DHT22;11950;51.230;4.012;2023-05-07T02:22:54;16.00;99.90
23544;DHT22;11950;51.230;4.012;2023-05-07T02:25:21;16.00;99.90
23544;DHT22;11950;51.230;4.012;2023-05-07T02:27:47;16.00;99.90
23544;DHT22;11950;51.230;4.012;2023-05-07T02:30:16;16.00;99.90
23544;DHT22;11950;51.230;4.012;2023-05-07T02:32:43;16.00;99.90
23544;DHT22;11950;51.230;4.012;2023-05-07T02:35:09;15.90;99.90
23544;DHT22;11950;51.230;4.012;2023-05-07T02:37:36;16.00;99.90
23544;DHT22;11950;51.230;4.012;2023-05-07T02:40:02;15.90;99.90
23544;DHT22;11950;51.230;4.012;2023-05-07T02:42:30;15.90;99.90
23544;DHT22;11950;51.230;4.012;2023-05-07T02:44:57;16.00;99.90
23544;DHT22;11950;51.230;4.012;2023-05-07T02:47:24;16.00;99.90
23544;DHT22;11950;51.230;4.012;2023-05-07T02:49:54;16.00;99.90
23544;DHT22;11950;51.230;4.012;2023-05-07T02:52:21;16.00;99.90
23544;DHT22;11950;51.230;4.012;2023-05-07T02:54:48;15.90;99.90
23544;DHT22;11950;51.230;4.012;2023-05-07T02:57:14;15.90;99.90
23544;DHT22;11950;51.230;4.012;2023-05-07T02:59:41;15.90;99.90
23544;DHT22;11950;51.230;4.012;2023-05-07T03:02:08;16.00;99.90
23544;DHT22;11950;51.230;4.012;2023-05-07T03:04:34;15.90;99.90
23544;DHT22;11950;51.230;4.012;2023-05-07T03:07:01;15.90;99.90
23544;DHT22;11950;51.230;4.012;2023-05-07T03:09:27;16.00;99.90
23544;DHT22;11950;51.230;4.012;2023-05-07T03:11:54;16.00;99.90
23544;DHT22;11950;51.230;4.012;2023-05-07T03:14:20;16.00;99.90
23544;DHT22;11950;51.230;4.012;2023-05-07T03:16:47;16.00;99.90
23544;DHT22;11950;51.230;4.012;2023-05-07T03:19:13;16.00;99.90
23544;DHT22;11950;51.230;4.012;2023-05-07T03:21:39;16.00;99.90
23544;DHT22;11950;51.230;4.012;2023-05-07T03:24:06;16.00;99.90
23544;DHT22;11950;51.230;4.012;2023-05-07T03:26:33;15.90;99.90
23544;DHT22;11950;51.230;4.012;2023-05-07T03:28:59;16.00;99.90
23544;DHT22;11950;51.230;4.012;2023-05-07T03:31:26;15.90;99.90
23544;DHT22;11950;51.230;4.012;2023-05-07T03:33:57;16.00;99.90
23544;DHT22;11950;51.230;4.012;2023-05-07T03:36:24;16.00;99.90
23544;DHT22;11950;51.230;4.012;2023-05-07T03:38:53;16.00;99.90
23544;DHT22;11950;51.230;4.012;2023-05-07T03:41:22;16.00;99.90
23544;DHT22;11950;51.230;4.012;2023-05-07T03:43:49;16.00;99.90
23544;DHT22;11950;51.230;4.012;2023-05-07T03:46:15;16.00;99.90
23544;DHT22;11950;51.230;4.012;2023-05-07T03:48:42;16.00;99.90
23544;DHT22;11950;51.230;4.012;2023-05-07T03:51:10;16.00;99.90
23544;DHT22;11950;51.230;4.012;2023-05-07T03:53:36;15.90;99.90
23544;DHT22;11950;51.230;4.012;2023-05-07T03:56:03;15.90;99.90
23544;DHT22;11950;51.230;4.012;2023-05-07T03:58:34;16.00;99.90
23544;DHT22;11950;51.230;4.012;2023-05-07T04:01:06;16.00;99.90
23544;DHT22;11950;51.230;4.012;2023-05-07T04:03:33;16.00;99.90
23544;DHT22;11950;51.230;4.012;2023-05-07T04:06:00;16.00;99.90
23544;DHT22;11950;51.230;4.012;2023-05-07T04:08:27;15.90;99.90
23544;DHT22;11950;51.230;4.012;2023-05-07T04:10:55;15.90;99.90
23544;DHT22;11950;51.230;4.012;2023-05-07T04:13:23;15.90;99.90
23544;DHT22;11950;51.230;4.012;2023-05-07T04:15:52;16.00;99.90
23544;DHT22;11950;51.230;4.012;2023-05-07T04:18:19;15.90;99.90
23544;DHT22;11950;51.230;4.012;2023-05-07T04:20:48;15.90;99.90
23544;DHT22;11950;51.230;4.012;2023-05-07T04:23:15;15.90;99.90
23544;DHT22;11950;51.230;4.012;2023-05-07T04:25:42;15.90;99.90
23544;DHT22;11950;51.230;4.012;2023-05-07T04:28:23;15.90;99.90
23544;DHT22;11950;51.230;4.012;2023-05-07T04:30:50;15.90;99.90
23544;DHT22;11950;51.230;4.012;2023-05-07T04:33:16;15.90;99.90
23544;DHT22;11950;51.230;4.012;2023-05-07T04:35:44;15.80;99.90
23544;DHT22;11950;51.230;4.012;2023-05-07T04:38:11;15.90;99.90
23544;DHT22;11950;51.230;4.012;2023-05-07T04:40:37;15.90;99.90
23544;DHT22;11950;51.230;4.012;2023-05-07T04:43:05;15.90;99.90
23544;DHT22;11950;51.230;4.012;2023-05-07T04:45:38;15.90;99.90
23544;DHT22;11950;51.230;4.012;2023-05-07T04:48:09;15.90;99.90
23544;DHT22;11950;51.230;4.012;2023-05-07T04:50:36;15.90;99.90
23544;DHT22;11950;51.230;4.012;2023-05-07T04:53:03;15.90;99.90
23544;DHT22;11950;51.230;4.012;2023-05-07T04:55:30;15.90;99.90
23544;DHT22;11950;51.230;4.012;2023-05-07T04:57:57;15.90;99.90
23544;DHT22;11950;51.230;4.012;2023-05-07T05:00:24;15.90;99.90
23544;DHT22;11950;51.230;4.012;2023-05-07T05:02:52;15.90;99.90
23544;DHT22;11950;51.230;4.012;2023-05-07T05:05:21;15.90;99.90
23544;DHT22;11950;51.230;4.012;2023-05-07T05:07:50;15.90;99.90
23544;DHT22;11950;51.230;4.012;2023-05-07T05:10:18;15.90;99.90
23544;DHT22;11950;51.230;4.012;2023-05-07T05:12:44;16.00;99.90
23544;DHT22;11950;51.230;4.012;2023-05-07T05:15:12;16.00;99.90
23544;DHT22;11950;51.230;4.012;2023-05-07T05:17:44;16.00;99.90
23544;DHT22;11950;51.230;4.012;2023-05-07T05:20:11;16.00;99.90
23544;DHT22;11950;51.230;4.012;2023-05-07T05:22:39;16.00;99.90
23544;DHT22;11950;51.230;4.012;2023-05-07T05:25:07;16.00;99.90
23544;DHT22;11950;51.230;4.012;2023-05-07T05:27:34;16.00;99.90
23544;DHT22;11950;51.230;4.012;2023-05-07T05:30:01;16.10;99.90
23544;DHT22;11950;51.230;4.012;2023-05-07T05:32:29;16.10;99.90
23544;DHT22;11950;51.230;4.012;2023-05-07T05:34:57;16.10;99.90
23544;DHT22;11950;51.230;4.012;2023-05-07T05:37:23;16.10;99.90
23544;DHT22;11950;51.230;4.012;2023-05-07T05:39:50;16.20;99.90
23544;DHT22;11950;51.230;4.012;2023-05-07T05:42:17;16.20;99.90
23544;DHT22;11950;51.230;4.012;2023-05-07T05:44:43;16.20;99.90
23544;DHT22;11950;51.230;4.012;2023-05-07T05:47:10;16.20;99.90
23544;DHT22;11950;51.230;4.012;2023-05-07T05:49:37;16.20;99.90
23544;DHT22;11950;51.230;4.012;2023-05-07T05:52:04;16.20;99.90
23544;DHT22;11950;51.230;4.012;2023-05-07T05:54:31;16.20;99.90
23544;DHT22;11950;51.230;4.012;2023-05-07T05:56:57;16.30;99.90
23544;DHT22;11950;51.230;4.012;2023-05-07T05:59:25;16.30;99.90
23544;DHT22;11950;51.230;4.012;2023-05-07T06:01:53;16.30;99.90
23544;DHT22;11950;51.230;4.012;2023-05-07T06:04:21;16.30;99.90
23544;DHT22;11950;51.230;4.012;2023-05-07T06:06:48;16.30;99.90
23544;DHT22;11950;51.230;4.012;2023-05-07T06:09:15;16.30;99.90
23544;DHT22;11950;51.230;4.012;2023-05-07T06:11:43;16.40;99.90
23544;DHT22;11950;51.230;4.012;2023-05-07T06:14:11;16.40;99.90
23544;DHT22;11950;51.230;4.012;2023-05-07T06:16:38;16.40;99.90
23544;DHT22;11950;51.230;4.012;2023-05-07T06:19:06;16.40;99.90
23544;DHT22;11950;51.230;4.012;2023-05-07T06:21:33;16.50;99.90
23544;DHT22;11950;51.230;4.012;2023-05-07T06:24:00;16.50;99.90
23544;DHT22;11950;51.230;4.012;2023-05-07T06:26:26;16.50;99.90
23544;DHT22;11950;51.230;4.012;2023-05-07T06:28:53;16.50;99.90
23544;DHT22;11950;51.230;4.012;2023-05-07T06:31:20;16.50;99.90
23544;DHT22;11950;51.230;4.012;2023-05-07T06:33:52;16.50;99.90
23544;DHT22;11950;51.230;4.012;2023-05-07T06:36:19;16.60;99.90
23544;DHT22;11950;51.230;4.012;2023-05-07T06:38:46;16.60;99.90
23544;DHT22;11950;51.230;4.012;2023-05-07T06:41:12;16.60;99.90
23544;DHT22;11950;51.230;4.012;2023-05-07T06:43:39;16.60;99.90
23544;DHT22;11950;51.230;4.012;2023-05-07T06:46:24;16.70;99.90
23544;DHT22;11950;51.230;4.012;2023-05-07T06:48:51;16.70;99.90
23544;DHT22;11950;51.230;4.012;2023-05-07T06:51:19;16.70;99.90
23544;DHT22;11950;51.230;4.012;2023-05-07T06:53:46;16.70;99.90
23544;DHT22;11950;51.230;4.012;2023-05-07T06:56:12;16.70;99.90
23544;DHT22;11950;51.230;4.012;2023-05-07T06:58:39;16.80;99.90
23544;DHT22;11950;51.230;4.012;2023-05-07T07:01:07;16.80;99.90
23544;DHT22;11950;51.230;4.012;2023-05-07T07:03:34;16.90;99.90
23544;DHT22;11950;51.230;4.012;2023-05-07T07:06:01;16.90;99.90
23544;DHT22;11950;51.230;4.012;2023-05-07T07:08:29;16.90;99.90
23544;DHT22;11950;51.230;4.012;2023-05-07T07:10:55;17.00;99.90
23544;DHT22;11950;51.230;4.012;2023-05-07T07:13:22;17.00;99.90
23544;DHT22;11950;51.230;4.012;2023-05-07T07:15:48;17.10;99.90
23544;DHT22;11950;51.230;4.012;2023-05-07T07:18:14;17.10;99.90
23544;DHT22;11950;51.230;4.012;2023-05-07T07:20:42;17.20;99.90
23544;DHT22;11950;51.230;4.012;2023-05-07T07:23:10;17.20;99.90
23544;DHT22;11950;51.230;4.012;2023-05-07T07:25:37;17.20;99.90
23544;DHT22;11950;51.230;4.012;2023-05-07T07:28:04;17.20;99.90
23544;DHT22;11950;51.230;4.012;2023-05-07T07:30:31;17.30;99.90
23544;DHT22;11950;51.230;4.012;2023-05-07T07:32:57;17.30;99.90
23544;DHT22;11950;51.230;4.012;2023-05-07T07:35:29;17.30;99.90
23544;DHT22;11950;51.230;4.012;2023-05-07T07:37:56;17.30;99.90
23544;DHT22;11950;51.230;4.012;2023-05-07T07:40:23;17.40;99.90
23544;DHT22;11950;51.230;4.012;2023-05-07T07:42:50;17.40;99.90
23544;DHT22;11950;51.230;4.012;2023-05-07T07:45:17;17.40;99.90
23544;DHT22;11950;51.230;4.012;2023-05-07T07:47:46;17.50;99.90
23544;DHT22;11950;51.230;4.012;2023-05-07T07:50:13;17.50;99.90
23544;DHT22;11950;51.230;4.012;2023-05-07T07:52:39;17.50;99.90
23544;DHT22;11950;51.230;4.012;2023-05-07T07:55:08;17.50;99.90
23544;DHT22;11950;51.230;4.012;2023-05-07T07:57:35;17.60;99.90
23544;DHT22;11950;51.230;4.012;2023-05-07T08:00:02;17.60;99.90
23544;DHT22;11950;51.230;4.012;2023-05-07T08:02:31;17.70;99.90
23544;DHT22;11950;51.230;4.012;2023-05-07T08:04:58;17.70;99.90
23544;DHT22;11950;51.230;4.012;2023-05-07T08:07:24;17.80;99.90
23544;DHT22;11950;51.230;4.012;2023-05-07T08:09:50;17.80;99.90
23544;DHT22;11950;51.230;4.012;2023-05-07T08:12:21;17.90;99.90
23544;DHT22;11950;51.230;4.012;2023-05-07T08:14:48;17.90;99.90
23544;DHT22;11950;51.230;4.012;2023-05-07T08:17:14;17.90;99.90
23544;DHT22;11950;51.230;4.012;2023-05-07T08:19:43;18.00;99.90
23544;DHT22;11950;51.230;4.012;2023-05-07T08:22:12;18.00;99.90
23544;DHT22;11950;51.230;4.012;2023-05-07T08:24:39;18.00;99.90
23544;DHT22;11950;51.230;4.012;2023-05-07T08:27:05;18.00;99.90
23544;DHT22;11950;51.230;4.012;2023-05-07T08:29:32;18.00;99.90
23544;DHT22;11950;51.230;4.012;2023-05-07T08:32:00;18.00;99.90
23544;DHT22;11950;51.230;4.012;2023-05-07T08:34:26;18.00;99.90
23544;DHT22;11950;51.230;4.012;2023-05-07T08:36:54;18.00;99.90
23544;DHT22;11950;51.230;4.012;2023-05-07T08:39:23;18.00;99.90
23544;DHT22;11950;51.230;4.012;2023-05-07T08:41:55;18.00;99.90
23544;DHT22;11950;51.230;4.012;2023-05-07T08:44:26;18.00;99.90
23544;DHT22;11950;51.230;4.012;2023-05-07T08:46:56;18.10;99.90
23544;DHT22;11950;51.230;4.012;2023-05-07T08:49:24;18.10;99.90
23544;DHT22;11950;51.230;4.012;2023-05-07T08:51:52;18.10;99.90
23544;DHT22;11950;51.230;4.012;2023-05-07T08:54:20;18.00;99.90
23544;DHT22;11950;51.230;4.012;2023-05-07T08:56:48;18.10;99.90
23544;DHT22;11950;51.230;4.012;2023-05-07T08:59:15;18.00;99.90
23544;DHT22;11950;51.230;4.012;2023-05-07T09:01:43;18.00;99.90
23544;DHT22;11950;51.230;4.012;2023-05-07T09:04:10;18.00;99.90
23544;DHT22;11950;51.230;4.012;2023-05-07T09:06:39;18.00;99.90
23544;DHT22;11950;51.230;4.012;2023-05-07T09:09:08;18.00;99.90
23544;DHT22;11950;51.230;4.012;2023-05-07T09:11:35;18.00;99.90
23544;DHT22;11950;51.230;4.012;2023-05-07T09:14:02;18.00;99.90
23544;DHT22;11950;51.230;4.012;2023-05-07T09:16:33;18.00;99.90
23544;DHT22;11950;51.230;4.012;2023-05-07T09:19:01;18.00;99.90
23544;DHT22;11950;51.230;4.012;2023-05-07T09:21:27;18.00;99.90
23544;DHT22;11950;51.230;4.012;2023-05-07T09:23:56;18.00;99.90
23544;DHT22;11950;51.230;4.012;2023-05-07T09:26:29;18.00;99.90
23544;DHT22;11950;51.230;4.012;2023-05-07T09:28:58;18.00;99.90
23544;DHT22;11950;51.230;4.012;2023-05-07T09:31:24;18.00;99.90
23544;DHT22;11950;51.230;4.012;2023-05-07T09:33:54;18.00;99.90
23544;DHT22;11950;51.230;4.012;2023-05-07T09:36:23;18.00;99.90
23544;DHT22;11950;51.230;4.012;2023-05-07T09:38:50;18.00;99.90
23544;DHT22;11950;51.230;4.012;2023-05-07T09:41:17;18.00;99.90
23544;DHT22;11950;51.230;4.012;2023-05-07T09:43:55;18.00;99.90
23544;DHT22;11950;51.230;4.012;2023-05-07T09:46:30;18.00;99.90
23544;DHT22;11950;51.230;4.012;2023-05-07T09:48:59;18.00;99.90
23544;DHT22;11950;51.230;4.012;2023-05-07T09:51:37;18.10;99.90
23544;DHT22;11950;51.230;4.012;2023-05-07T09:54:06;18.10;99.90
23544;DHT22;11950;51.230;4.012;2023-05-07T09:56:35;18.10;99.90
23544;DHT22;11950;51.230;4.012;2023-05-07T09:59:06;18.10;99.90
23544;DHT22;11950;51.230;4.012;2023-05-07T10:01:36;18.20;99.90
23544;DHT22;11950;51.230;4.012;2023-05-07T10:04:03;18.10;99.90
23544;DHT22;11950;51.230;4.012;2023-05-07T10:06:31;18.20;99.90
23544;DHT22;11950;51.230;4.012;2023-05-07T10:08:59;18.20;99.90
23544;DHT22;11950;51.230;4.012;2023-05-07T10:11:25;18.20;99.90
23544;DHT22;11950;51.230;4.012;2023-05-07T10:13:52;18.20;99.90
23544;DHT22;11950;51.230;4.012;2023-05-07T10:16:19;18.30;99.90
23544;DHT22;11950;51.230;4.012;2023-05-07T10:18:48;18.20;99.90
23544;DHT22;11950;51.230;4.012;2023-05-07T10:21:21;18.30;99.90
23544;DHT22;11950;51.230;4.012;2023-05-07T10:23:57;18.20;99.90
23544;DHT22;11950;51.230;4.012;2023-05-07T10:26:25;18.20;99.90
23544;DHT22;11950;51.230;4.012;2023-05-07T10:29:42;18.30;99.90
23544;DHT22;11950;51.230;4.012;2023-05-07T10:31:55;18.20;99.90
23544;DHT22;11950;51.230;4.012;2023-05-07T10:34:32;18.30;99.90
23544;DHT22;11950;51.230;4.012;2023-05-07T10:37:01;18.30;99.90
23544;DHT22;11950;51.230;4.012;2023-05-07T10:39:29;18.30;99.90
23544;DHT22;11950;51.230;4.012;2023-05-07T10:42:10;18.40;99.90
23544;DHT22;11950;51.230;4.012;2023-05-07T10:44:38;18.40;99.90
23544;DHT22;11950;51.230;4.012;2023-05-07T10:47:15;18.40;99.90
23544;DHT22;11950;51.230;4.012;2023-05-07T10:52:29;18.50;99.90
23544;DHT22;11950;51.230;4.012;2023-05-07T10:58:35;18.50;99.90
23544;DHT22;11950;51.230;4.012;2023-05-07T11:01:13;18.50;99.90
23544;DHT22;11950;51.230;4.012;2023-05-07T11:04:16;18.50;99.90
23544;DHT22;11950;51.230;4.012;2023-05-07T11:15:11;18.50;99.90
23544;DHT22;11950;51.230;4.012;2023-05-07T11:17:58;18.60;99.90
23544;DHT22;11950;51.230;4.012;2023-05-07T11:26:25;18.70;99.90
23544;DHT22;11950;51.230;4.012;2023-05-07T11:28:53;18.70;99.90
23544;DHT22;11950;51.230;4.012;2023-05-07T11:31:23;18.70;99.90
23544;DHT22;11950;51.230;4.012;2023-05-07T11:33:52;18.80;99.90
23544;DHT22;11950;51.230;4.012;2023-05-07T11:36:22;18.90;99.90
23544;DHT22;11950;51.230;4.012;2023-05-07T11:38:51;18.90;99.90
23544;DHT22;11950;51.230;4.012;2023-05-07T11:41:18;18.90;99.90
23544;DHT22;11950;51.230;4.012;2023-05-07T11:43:56;19.00;99.90
23544;DHT22;11950;51.230;4.012;2023-05-07T11:46:23;19.00;99.90
23544;DHT22;11950;51.230;4.012;2023-05-07T11:48:49;19.10;99.90
23544;DHT22;11950;51.230;4.012;2023-05-07T11:51:24;19.10;99.90
23544;DHT22;11950;51.230;4.012;2023-05-07T11:53:52;19.10;99.90
23544;DHT22;11950;51.230;4.012;2023-05-07T11:56:19;19.20;99.90
23544;DHT22;11950;51.230;4.012;2023-05-07T11:58:46;19.20;99.90
23544;DHT22;11950;51.230;4.012;2023-05-07T12:01:14;19.20;99.90
23544;DHT22;11950;51.230;4.012;2023-05-07T12:03:43;19.30;99.90
23544;DHT22;11950;51.230;4.012;2023-05-07T12:06:11;19.30;99.90
23544;DHT22;11950;51.230;4.012;2023-05-07T12:08:40;19.40;99.90
23544;DHT22;11950;51.230;4.012;2023-05-07T12:11:08;19.40;99.90
23544;DHT22;11950;51.230;4.012;2023-05-07T12:13:35;19.40;99.90
23544;DHT22;11950;51.230;4.012;2023-05-07T12:16:01;19.40;99.90
23544;DHT22;11950;51.230;4.012;2023-05-07T12:18:29;19.40;99.90
23544;DHT22;11950;51.230;4.012;2023-05-07T12:20:56;19.40;99.90
23544;DHT22;11950;51.230;4.012;2023-05-07T12:23:23;19.50;99.90
23544;DHT22;11950;51.230;4.012;2023-05-07T12:25:49;19.50;99.90
23544;DHT22;11950;51.230;4.012;2023-05-07T12:28:17;19.60;99.90
23544;DHT22;11950;51.230;4.012;2023-05-07T12:30:45;19.60;99.90
23544;DHT22;11950;51.230;4.012;2023-05-07T12:33:15;19.60;99.90
23544;DHT22;11950;51.230;4.012;2023-05-07T12:35:43;19.70;99.90
23544;DHT22;11950;51.230;4.012;2023-05-07T12:38:17;19.80;99.90
23544;DHT22;11950;51.230;4.012;2023-05-07T12:40:45;19.80;99.90
23544;DHT22;11950;51.230;4.012;2023-05-07T12:43:25;19.80;99.90
23544;DHT22;11950;51.230;4.012;2023-05-07T12:45:55;19.80;99.90
23544;DHT22;11950;51.230;4.012;2023-05-07T12:48:22;19.90;99.90
23544;DHT22;11950;51.230;4.012;2023-05-07T12:50:55;19.90;99.90
23544;DHT22;11950;51.230;4.012;2023-05-07T12:53:24;20.00;99.90
23544;DHT22;11950;51.230;4.012;2023-05-07T12:55:52;20.10;99.90
23544;DHT22;11950;51.230;4.012;2023-05-07T12:58:27;20.20;99.90
23544;DHT22;11950;51.230;4.012;2023-05-07T13:00:55;20.30;99.90
23544;DHT22;11950;51.230;4.012;2023-05-07T13:03:37;20.20;99.90
23544;DHT22;11950;51.230;4.012;2023-05-07T13:06:09;20.20;99.90
23544;DHT22;11950;51.230;4.012;2023-05-07T13:08:37;20.30;99.90
23544;DHT22;11950;51.230;4.012;2023-05-07T13:11:07;20.30;99.90
23544;DHT22;11950;51.230;4.012;2023-05-07T13:17:08;20.30;99.90
23544;DHT22;11950;51.230;4.012;2023-05-07T13:19:35;20.40;99.90
23544;DHT22;11950;51.230;4.012;2023-05-07T13:22:03;20.30;99.90
23544;DHT22;11950;51.230;4.012;2023-05-07T13:24:30;20.30;99.90
23544;DHT22;11950;51.230;4.012;2023-05-07T13:26:56;20.20;99.90
23544;DHT22;11950;51.230;4.012;2023-05-07T13:29:23;20.30;99.90
23544;DHT22;11950;51.230;4.012;2023-05-07T13:31:56;20.30;99.90
23544;DHT22;11950;51.230;4.012;2023-05-07T13:34:22;20.40;99.90
23544;DHT22;11950;51.230;4.012;2023-05-07T13:36:49;20.40;99.90
23544;DHT22;11950;51.230;4.012;2023-05-07T13:39:16;20.40;99.90
23544;DHT22;11950;51.230;4.012;2023-05-07T13:41:42;20.40;99.90
23544;DHT22;11950;51.230;4.012;2023-05-07T13:44:09;20.40;99.90
23544;DHT22;11950;51.230;4.012;2023-05-07T13:46:36;20.40;99.90
23544;DHT22;11950;51.230;4.012;2023-05-07T13:49:02;20.40;99.90
23544;DHT22;11950;51.230;4.012;2023-05-07T13:51:29;20.50;99.90
23544;DHT22;11950;51.230;4.012;2023-05-07T13:53:55;20.50;99.90
23544;DHT22;11950;51.230;4.012;2023-05-07T13:56:22;20.50;99.90
23544;DHT22;11950;51.230;4.012;2023-05-07T13:58:49;20.50;99.90
23544;DHT22;11950;51.230;4.012;2023-05-07T14:08:37;20.40;99.90
23544;DHT22;11950;51.230;4.012;2023-05-07T14:22:41;20.50;99.90
23544;DHT22;11950;51.230;4.012;2023-05-07T14:28:48;20.50;99.90
23544;DHT22;11950;51.230;4.012;2023-05-07T14:31:36;20.50;99.90
23544;DHT22;11950;51.230;4.012;2023-05-07T14:34:59;20.60;99.90
23544;DHT22;11950;51.230;4.012;2023-05-07T14:37:28;20.50;99.90
23544;DHT22;11950;51.230;4.012;2023-05-07T14:40:18;20.50;99.90
23544;DHT22;11950;51.230;4.012;2023-05-07T15:05:43;20.50;99.90
23544;DHT22;11950;51.230;4.012;2023-05-07T15:11:22;20.60;99.90
23544;DHT22;11950;51.230;4.012;2023-05-07T15:14:10;20.60;99.90
23544;DHT22;11950;51.230;4.012;2023-05-07T15:27:21;20.70;99.90
23544;DHT22;11950;51.230;4.012;2023-05-07T15:30:22;20.60;99.90
23544;DHT22;11950;51.230;4.012;2023-05-07T15:32:55;20.60;99.90
23544;DHT22;11950;51.230;4.012;2023-05-07T15:39:42;20.60;99.90
23544;DHT22;11950;51.230;4.012;2023-05-07T15:42:45;20.60;99.90
23544;DHT22;11950;51.230;4.012;2023-05-07T15:45:12;20.50;99.90
23544;DHT22;11950;51.230;4.012;2023-05-07T15:47:39;20.50;99.90
23544;DHT22;11950;51.230;4.012;2023-05-07T15:50:05;20.40;99.90
23544;DHT22;11950;51.230;4.012;2023-05-07T15:52:32;20.40;99.90
23544;DHT22;11950;51.230;4.012;2023-05-07T15:54:58;20.40;99.90
23544;DHT22;11950;51.230;4.012;2023-05-07T15:57:25;20.40;99.90
23544;DHT22;11950;51.230;4.012;2023-05-07T15:59:51;20.40;99.90
23544;DHT22;11950;51.230;4.012;2023-05-07T16:02:18;20.40;99.90
23544;DHT22;11950;51.230;4.012;2023-05-07T16:04:44;20.40;99.90
23544;DHT22;11950;51.230;4.012;2023-05-07T16:07:10;20.40;99.90
23544;DHT22;11950;51.230;4.012;2023-05-07T16:09:37;20.40;99.90
23544;DHT22;11950;51.230;4.012;2023-05-07T16:12:04;20.30;99.90
23544;DHT22;11950;51.230;4.012;2023-05-07T16:14:30;20.30;99.90
23544;DHT22;11950;51.230;4.012;2023-05-07T16:16:57;20.30;99.90
23544;DHT22;11950;51.230;4.012;2023-05-07T16:19:23;20.30;99.90
23544;DHT22;11950;51.230;4.012;2023-05-07T16:21:50;20.30;99.90
23544;DHT22;11950;51.230;4.012;2023-05-07T16:24:16;20.30;99.90
23544;DHT22;11950;51.230;4.012;2023-05-07T16:27:00;20.30;99.90
23544;DHT22;11950;51.230;4.012;2023-05-07T16:29:43;20.30;99.90
23544;DHT22;11950;51.230;4.012;2023-05-07T16:32:57;20.20;99.90
23544;DHT22;11950;51.230;4.012;2023-05-07T16:38:47;20.20;99.90
23544;DHT22;11950;51.230;4.012;2023-05-07T16:41:29;20.20;99.90
23544;DHT22;11950;51.230;4.012;2023-05-07T16:43:55;20.20;99.90
23544;DHT22;11950;51.230;4.012;2023-05-07T16:46:22;20.20;99.90
23544;DHT22;11950;51.230;4.012;2023-05-07T16:48:49;20.20;99.90
23544;DHT22;11950;51.230;4.012;2023-05-07T16:51:15;20.20;99.90
23544;DHT22;11950;51.230;4.012;2023-05-07T16:53:41;20.20;99.90
23544;DHT22;11950;51.230;4.012;2023-05-07T16:56:10;20.20;99.90
23544;DHT22;11950;51.230;4.012;2023-05-07T16:58:36;20.10;99.90
23544;DHT22;11950;51.230;4.012;2023-05-07T17:01:04;20.10;99.90
23544;DHT22;11950;51.230;4.012;2023-05-07T17:03:30;20.10;99.90
23544;DHT22;11950;51.230;4.012;2023-05-07T17:05:57;20.00;99.90
23544;DHT22;11950;51.230;4.012;2023-05-07T17:08:23;20.00;99.90
23544;DHT22;11950;51.230;4.012;2023-05-07T17:10:49;20.00;99.90
23544;DHT22;11950;51.230;4.012;2023-05-07T17:13:16;19.90;99.90